sensor_id;sensor_type;location;lat;lon;timestamp;P1;durP1;ratioP1;P2;durP2;ratioP2
17812;SDS011;9030;50.792;8.320;2024-01-15T00:00:10;29.20;;;18.10;;
17812;SDS011;9030;50.792;8.320;2024-01-15T00:02:37;30.70;;;16.70;;
17812;SDS011;9030;50.792;8.320;2024-01-15T00:05:04;26.10;;;15.77;;
17812;SDS011;9030;50.792;8.320;2024-01-15T00:07:31;29.97;;;18.83;;
17812;SDS011;9030;50.792;8.320;2024-01-15T00:09:57;26.67;;;18.00;;
17812;SDS011;9030;50.792;8.320;2024-01-15T00:12:24;28.30;;;17.23;;
17812;SDS011;9030;50.792;8.320;2024-01-15T00:14:52;29.70;;;16.17;;
17812;SDS011;9030;50.792;8.320;2024-01-15T00:17:19;29.63;;;15.60;;
17812;SDS011;9030;50.792;8.320;2024-01-15T00:19:46;24.07;;;15.33;;
17812;SDS011;9030;50.792;8.320;2024-01-15T00:22:12;26.57;;;17.23;;
17812;SDS011;9030;50.792;8.320;2024-01-15T00:24:39;28.53;;;15.23;;
17812;SDS011;9030;50.792;8.320;2024-01-15T00:27:06;26.77;;;15.27;;
17812;SDS011;9030;50.792;8.320;2024-01-15T00:29:32;27.53;;;16.37;;
17812;SDS011;9030;50.792;8.320;2024-01-15T00:32:01;26.23;;;14.53;;
17812;SDS011;9030;50.792;8.320;2024-01-15T00:34:27;21.00;;;13.07;;
17812;SDS011;9030;50.792;8.320;2024-01-15T00:36:54;29.20;;;16.87;;
17812;SDS011;9030;50.792;8.320;2024-01-15T00:39:20;22.97;;;14.00;;
17812;SDS011;9030;50.792;8.320;2024-01-15T00:41:47;25.73;;;12.97;;
17812;SDS011;9030;50.792;8.320;2024-01-15T00:44:14;23.77;;;14.03;;
17812;SDS011;9030;50.792;8.320;2024-01-15T00:46:43;23.00;;;14.40;;
17812;SDS011;9030;50.792;8.320;2024-01-15T00:49:12;21.43;;;12.57;;
17812;SDS011;9030;50.792;8.320;2024-01-15T00:51:39;22.57;;;12.43;;
17812;SDS011;9030;50.792;8.320;2024-01-15T00:54:05;21.00;;;13.17;;
17812;SDS011;9030;50.792;8.320;2024-01-15T00:56:32;20.93;;;12.80;;
17812;SDS011;9030;50.792;8.320;2024-01-15T00:58:59;20.97;;;13.50;;
17812;SDS011;9030;50.792;8.320;2024-01-15T01:01:26;22.00;;;13.50;;
17812;SDS011;9030;50.792;8.320;2024-01-15T01:03:53;22.97;;;13.07;;
17812;SDS011;9030;50.792;8.320;2024-01-15T01:06:21;23.17;;;13.90;;
17812;SDS011;9030;50.792;8.320;2024-01-15T01:08:47;28.07;;;17.80;;
17812;SDS011;9030;50.792;8.320;2024-01-15T01:11:13;24.93;;;17.47;;
17812;SDS011;9030;50.792;8.320;2024-01-15T01:13:40;25.87;;;14.67;;
17812;SDS011;9030;50.792;8.320;2024-01-15T01:16:06;27.33;;;15.07;;
17812;SDS011;9030;50.792;8.320;2024-01-15T01:18:33;22.40;;;14.23;;
17812;SDS011;9030;50.792;8.320;2024-01-15T01:21:00;24.17;;;15.53;;
17812;SDS011;9030;50.792;8.320;2024-01-15T01:23:29;22.17;;;15.10;;
17812;SDS011;9030;50.792;8.320;2024-01-15T01:25:55;25.40;;;15.90;;
17812;SDS011;9030;50.792;8.320;2024-01-15T01:28:22;23.03;;;15.83;;
17812;SDS011;9030;50.792;8.320;2024-01-15T01:30:48;24.20;;;14.97;;
17812;SDS011;9030;50.792;8.320;2024-01-15T01:33:15;24.73;;;16.93;;
17812;SDS011;9030;50.792;8.320;2024-01-15T01:35:42;24.93;;;14.83;;
17812;SDS011;9030;50.792;8.320;2024-01-15T01:38:10;24.80;;;15.73;;
17812;SDS011;9030;50.792;8.320;2024-01-15T01:40:38;21.50;;;14.40;;
17812;SDS011;9030;50.792;8.320;2024-01-15T01:43:04;23.80;;;14.07;;
17812;SDS011;9030;50.792;8.320;2024-01-15T01:45:31;21.13;;;15.17;;
17812;SDS011;9030;50.792;8.320;2024-01-15T01:47:58;26.30;;;16.10;;
17812;SDS011;9030;50.792;8.320;2024-01-15T01:50:25;23.73;;;16.93;;
17812;SDS011;9030;50.792;8.320;2024-01-15T01:52:52;26.60;;;17.13;;
17812;SDS011;9030;50.792;8.320;2024-01-15T01:55:18;26.73;;;17.53;;
17812;SDS011;9030;50.792;8.320;2024-01-15T01:57:47;29.43;;;17.60;;
17812;SDS011;9030;50.792;8.320;2024-01-15T02:00:15;27.47;;;19.00;;
17812;SDS011;9030;50.792;8.320;2024-01-15T02:02:42;32.10;;;17.60;;
17812;SDS011;9030;50.792;8.320;2024-01-15T02:05:08;23.30;;;16.43;;
17812;SDS011;9030;50.792;8.320;2024-01-15T02:07:36;25.67;;;18.00;;
17812;SDS011;9030;50.792;8.320;2024-01-15T02:10:02;28.03;;;19.00;;
17812;SDS011;9030;50.792;8.320;2024-01-15T02:12:31;27.27;;;19.17;;
17812;SDS011;9030;50.792;8.320;2024-01-15T02:18:02;22.20;;;16.97;;
17812;SDS011;9030;50.792;8.320;2024-01-15T02:20:30;20.47;;;15.47;;
17812;SDS011;9030;50.792;8.320;2024-01-15T02:23:03;23.27;;;16.60;;
17812;SDS011;9030;50.792;8.320;2024-01-15T02:25:33;20.30;;;14.93;;
17812;SDS011;9030;50.792;8.320;2024-01-15T02:28:01;23.97;;;17.13;;
17812;SDS011;9030;50.792;8.320;2024-01-15T02:30:28;27.87;;;17.53;;
17812;SDS011;9030;50.792;8.320;2024-01-15T02:32:55;20.03;;;14.90;;
17812;SDS011;9030;50.792;8.320;2024-01-15T02:35:22;21.90;;;14.63;;
17812;SDS011;9030;50.792;8.320;2024-01-15T02:37:49;21.13;;;13.90;;
17812;SDS011;9030;50.792;8.320;2024-01-15T02:40:16;21.57;;;14.83;;
17812;SDS011;9030;50.792;8.320;2024-01-15T02:42:43;20.43;;;15.83;;
17812;SDS011;9030;50.792;8.320;2024-01-15T02:45:10;20.97;;;16.73;;
17812;SDS011;9030;50.792;8.320;2024-01-15T02:47:36;22.00;;;16.07;;
17812;SDS011;9030;50.792;8.320;2024-01-15T02:50:03;26.27;;;17.37;;
17812;SDS011;9030;50.792;8.320;2024-01-15T02:52:31;23.97;;;17.33;;
17812;SDS011;9030;50.792;8.320;2024-01-15T02:54:57;29.23;;;18.83;;
17812;SDS011;9030;50.792;8.320;2024-01-15T02:57:25;26.13;;;19.37;;
17812;SDS011;9030;50.792;8.320;2024-01-15T02:59:52;25.83;;;18.93;;
17812;SDS011;9030;50.792;8.320;2024-01-15T03:02:18;25.60;;;18.87;;
17812;SDS011;9030;50.792;8.320;2024-01-15T03:04:45;26.30;;;20.27;;
17812;SDS011;9030;50.792;8.320;2024-01-15T03:07:12;22.13;;;18.77;;
17812;SDS011;9030;50.792;8.320;2024-01-15T03:09:38;24.80;;;19.77;;
17812;SDS011;9030;50.792;8.320;2024-01-15T03:12:05;24.57;;;19.03;;
17812;SDS011;9030;50.792;8.320;2024-01-15T03:14:33;28.60;;;23.00;;
17812;SDS011;9030;50.792;8.320;2024-01-15T03:17:01;26.83;;;22.93;;
17812;SDS011;9030;50.792;8.320;2024-01-15T03:19:27;30.37;;;22.03;;
17812;SDS011;9030;50.792;8.320;2024-01-15T03:21:55;29.03;;;21.77;;
17812;SDS011;9030;50.792;8.320;2024-01-15T03:24:22;29.03;;;21.07;;
17812;SDS011;9030;50.792;8.320;2024-01-15T03:26:48;31.33;;;23.43;;
17812;SDS011;9030;50.792;8.320;2024-01-15T03:29:15;30.77;;;22.93;;
17812;SDS011;9030;50.792;8.320;2024-01-15T03:31:43;26.57;;;21.40;;
17812;SDS011;9030;50.792;8.320;2024-01-15T03:34:09;32.10;;;23.87;;
17812;SDS011;9030;50.792;8.320;2024-01-15T03:36:36;28.67;;;21.47;;
17812;SDS011;9030;50.792;8.320;2024-01-15T03:39:03;34.63;;;23.90;;
17812;SDS011;9030;50.792;8.320;2024-01-15T03:41:29;29.53;;;23.67;;
17812;SDS011;9030;50.792;8.320;2024-01-15T03:43:56;28.40;;;20.93;;
17812;SDS011;9030;50.792;8.320;2024-01-15T03:46:24;27.90;;;22.67;;
17812;SDS011;9030;50.792;8.320;2024-01-15T03:48:52;30.00;;;22.93;;
17812;SDS011;9030;50.792;8.320;2024-01-15T03:51:18;30.33;;;22.97;;
17812;SDS011;9030;50.792;8.320;2024-01-15T03:53:45;25.53;;;21.67;;
17812;SDS011;9030;50.792;8.320;2024-01-15T03:56:12;25.50;;;18.03;;
17812;SDS011;9030;50.792;8.320;2024-01-15T03:58:39;28.30;;;19.10;;
17812;SDS011;9030;50.792;8.320;2024-01-15T04:01:07;23.60;;;18.50;;
17812;SDS011;9030;50.792;8.320;2024-01-15T04:03:34;24.10;;;18.30;;
17812;SDS011;9030;50.792;8.320;2024-01-15T04:06:03;22.73;;;16.67;;
17812;SDS011;9030;50.792;8.320;2024-01-15T04:08:30;21.27;;;16.90;;
17812;SDS011;9030;50.792;8.320;2024-01-15T04:10:57;25.90;;;16.87;;
17812;SDS011;9030;50.792;8.320;2024-01-15T04:13:23;23.17;;;17.47;;
17812;SDS011;9030;50.792;8.320;2024-01-15T04:15:51;24.40;;;17.27;;
17812;SDS011;9030;50.792;8.320;2024-01-15T04:18:17;29.97;;;19.60;;
17812;SDS011;9030;50.792;8.320;2024-01-15T04:20:44;24.87;;;18.03;;
17812;SDS011;9030;50.792;8.320;2024-01-15T04:23:12;27.93;;;20.53;;
17812;SDS011;9030;50.792;8.320;2024-01-15T04:25:39;26.87;;;21.97;;
17812;SDS011;9030;50.792;8.320;2024-01-15T04:28:07;28.23;;;20.10;;
17812;SDS011;9030;50.792;8.320;2024-01-15T04:30:34;27.57;;;20.67;;
17812;SDS011;9030;50.792;8.320;2024-01-15T04:33:01;28.73;;;21.27;;
17812;SDS011;9030;50.792;8.320;2024-01-15T04:35:28;27.43;;;21.37;;
17812;SDS011;9030;50.792;8.320;2024-01-15T04:37:54;25.37;;;20.53;;
17812;SDS011;9030;50.792;8.320;2024-01-15T04:40:22;25.90;;;20.60;;
17812;SDS011;9030;50.792;8.320;2024-01-15T04:42:52;30.97;;;21.93;;
17812;SDS011;9030;50.792;8.320;2024-01-15T04:45:19;27.80;;;21.20;;
17812;SDS011;9030;50.792;8.320;2024-01-15T04:47:47;27.33;;;20.00;;
17812;SDS011;9030;50.792;8.320;2024-01-15T04:50:14;27.27;;;20.87;;
17812;SDS011;9030;50.792;8.320;2024-01-15T04:52:41;29.37;;;20.97;;
17812;SDS011;9030;50.792;8.320;2024-01-15T04:55:07;28.70;;;20.73;;
17812;SDS011;9030;50.792;8.320;2024-01-15T04:57:36;30.80;;;18.27;;
17812;SDS011;9030;50.792;8.320;2024-01-15T05:00:03;24.43;;;18.67;;
17812;SDS011;9030;50.792;8.320;2024-01-15T05:02:30;25.90;;;18.37;;
17812;SDS011;9030;50.792;8.320;2024-01-15T05:04:56;26.73;;;20.17;;
17812;SDS011;9030;50.792;8.320;2024-01-15T05:07:23;27.20;;;21.23;;
17812;SDS011;9030;50.792;8.320;2024-01-15T05:09:50;26.40;;;17.83;;
17812;SDS011;9030;50.792;8.320;2024-01-15T05:12:16;27.57;;;18.90;;
17812;SDS011;9030;50.792;8.320;2024-01-15T05:14:44;26.97;;;19.57;;
17812;SDS011;9030;50.792;8.320;2024-01-15T05:17:11;27.40;;;20.57;;
17812;SDS011;9030;50.792;8.320;2024-01-15T05:19:37;23.23;;;18.43;;
17812;SDS011;9030;50.792;8.320;2024-01-15T05:22:04;27.70;;;18.97;;
17812;SDS011;9030;50.792;8.320;2024-01-15T05:24:31;26.93;;;19.80;;
17812;SDS011;9030;50.792;8.320;2024-01-15T05:26:57;28.37;;;20.73;;
17812;SDS011;9030;50.792;8.320;2024-01-15T05:29:24;28.30;;;20.03;;
17812;SDS011;9030;50.792;8.320;2024-01-15T05:31:53;34.87;;;23.53;;
17812;SDS011;9030;50.792;8.320;2024-01-15T05:34:20;35.13;;;26.93;;
17812;SDS011;9030;50.792;8.320;2024-01-15T05:36:46;30.37;;;20.40;;
17812;SDS011;9030;50.792;8.320;2024-01-15T05:39:13;55.37;;;40.33;;
17812;SDS011;9030;50.792;8.320;2024-01-15T05:41:40;25.63;;;19.17;;
17812;SDS011;9030;50.792;8.320;2024-01-15T05:44:06;31.50;;;21.47;;
17812;SDS011;9030;50.792;8.320;2024-01-15T05:46:33;38.17;;;30.37;;
17812;SDS011;9030;50.792;8.320;2024-01-15T05:49:01;67.07;;;48.80;;
17812;SDS011;9030;50.792;8.320;2024-01-15T05:51:27;27.40;;;21.17;;
17812;SDS011;9030;50.792;8.320;2024-01-15T05:53:53;33.77;;;28.33;;
17812;SDS011;9030;50.792;8.320;2024-01-15T05:56:20;28.93;;;23.90;;
17812;SDS011;9030;50.792;8.320;2024-01-15T05:58:46;39.13;;;30.23;;
17812;SDS011;9030;50.792;8.320;2024-01-15T06:01:13;28.40;;;20.50;;
17812;SDS011;9030;50.792;8.320;2024-01-15T06:03:39;28.83;;;22.10;;
17812;SDS011;9030;50.792;8.320;2024-01-15T06:06:08;27.20;;;21.00;;
17812;SDS011;9030;50.792;8.320;2024-01-15T06:08:34;30.00;;;21.97;;
17812;SDS011;9030;50.792;8.320;2024-01-15T06:11:01;34.50;;;23.63;;
17812;SDS011;9030;50.792;8.320;2024-01-15T06:13:28;34.90;;;22.47;;
17812;SDS011;9030;50.792;8.320;2024-01-15T06:15:54;29.67;;;25.07;;
17812;SDS011;9030;50.792;8.320;2024-01-15T06:18:21;34.83;;;25.53;;
17812;SDS011;9030;50.792;8.320;2024-01-15T06:20:47;37.53;;;26.70;;
17812;SDS011;9030;50.792;8.320;2024-01-15T06:23:15;31.37;;;24.27;;
17812;SDS011;9030;50.792;8.320;2024-01-15T06:25:42;27.87;;;23.03;;
17812;SDS011;9030;50.792;8.320;2024-01-15T06:28:09;32.93;;;23.93;;
17812;SDS011;9030;50.792;8.320;2024-01-15T06:30:35;32.27;;;22.70;;
17812;SDS011;9030;50.792;8.320;2024-01-15T06:33:02;35.63;;;24.23;;
17812;SDS011;9030;50.792;8.320;2024-01-15T06:35:29;34.93;;;21.23;;
17812;SDS011;9030;50.792;8.320;2024-01-15T06:37:55;33.00;;;22.10;;
17812;SDS011;9030;50.792;8.320;2024-01-15T06:40:23;28.27;;;22.13;;
17812;SDS011;9030;50.792;8.320;2024-01-15T06:42:50;31.80;;;22.53;;
17812;SDS011;9030;50.792;8.320;2024-01-15T06:45:16;30.00;;;21.37;;
17812;SDS011;9030;50.792;8.320;2024-01-15T06:47:43;32.60;;;22.37;;
17812;SDS011;9030;50.792;8.320;2024-01-15T06:50:10;30.70;;;21.60;;
17812;SDS011;9030;50.792;8.320;2024-01-15T06:52:36;25.80;;;18.90;;
17812;SDS011;9030;50.792;8.320;2024-01-15T06:55:03;31.03;;;23.73;;
17812;SDS011;9030;50.792;8.320;2024-01-15T06:57:32;25.20;;;18.97;;
17812;SDS011;9030;50.792;8.320;2024-01-15T06:59:58;30.27;;;20.63;;
17812;SDS011;9030;50.792;8.320;2024-01-15T07:02:25;41.97;;;31.80;;
17812;SDS011;9030;50.792;8.320;2024-01-15T07:04:52;62.07;;;37.20;;
17812;SDS011;9030;50.792;8.320;2024-01-15T07:07:19;37.07;;;26.37;;
17812;SDS011;9030;50.792;8.320;2024-01-15T07:09:45;34.00;;;24.93;;
17812;SDS011;9030;50.792;8.320;2024-01-15T07:12:12;31.63;;;24.67;;
17812;SDS011;9030;50.792;8.320;2024-01-15T07:14:40;35.90;;;22.57;;
17812;SDS011;9030;50.792;8.320;2024-01-15T07:17:06;30.13;;;20.17;;
17812;SDS011;9030;50.792;8.320;2024-01-15T07:19:33;29.07;;;21.07;;
17812;SDS011;9030;50.792;8.320;2024-01-15T07:22:00;40.60;;;28.40;;
17812;SDS011;9030;50.792;8.320;2024-01-15T07:24:26;39.53;;;31.80;;
17812;SDS011;9030;50.792;8.320;2024-01-15T07:26:53;40.00;;;29.50;;
17812;SDS011;9030;50.792;8.320;2024-01-15T07:29:20;30.60;;;24.67;;
17812;SDS011;9030;50.792;8.320;2024-01-15T07:31:49;35.40;;;27.33;;
17812;SDS011;9030;50.792;8.320;2024-01-15T07:34:15;33.93;;;24.13;;
17812;SDS011;9030;50.792;8.320;2024-01-15T07:36:43;38.23;;;27.00;;
17812;SDS011;9030;50.792;8.320;2024-01-15T07:39:10;35.07;;;23.63;;
17812;SDS011;9030;50.792;8.320;2024-01-15T07:41:36;27.50;;;22.23;;
17812;SDS011;9030;50.792;8.320;2024-01-15T07:44:03;35.77;;;24.50;;
17812;SDS011;9030;50.792;8.320;2024-01-15T07:46:30;38.03;;;27.33;;
17812;SDS011;9030;50.792;8.320;2024-01-15T07:48:58;45.80;;;36.33;;
17812;SDS011;9030;50.792;8.320;2024-01-15T07:51:25;29.63;;;20.17;;
17812;SDS011;9030;50.792;8.320;2024-01-15T07:53:52;23.57;;;17.87;;
17812;SDS011;9030;50.792;8.320;2024-01-15T07:56:19;22.97;;;16.23;;
17812;SDS011;9030;50.792;8.320;2024-01-15T07:58:46;24.90;;;18.63;;
17812;SDS011;9030;50.792;8.320;2024-01-15T08:01:13;23.93;;;17.53;;
17812;SDS011;9030;50.792;8.320;2024-01-15T08:03:40;27.40;;;17.27;;
17812;SDS011;9030;50.792;8.320;2024-01-15T08:06:08;24.73;;;18.17;;
17812;SDS011;9030;50.792;8.320;2024-01-15T08:08:34;25.40;;;16.43;;
17812;SDS011;9030;50.792;8.320;2024-01-15T08:11:01;21.27;;;16.60;;
17812;SDS011;9030;50.792;8.320;2024-01-15T08:13:28;27.30;;;21.20;;
17812;SDS011;9030;50.792;8.320;2024-01-15T08:15:55;29.80;;;21.13;;
17812;SDS011;9030;50.792;8.320;2024-01-15T08:18:22;25.27;;;18.20;;
17812;SDS011;9030;50.792;8.320;2024-01-15T08:20:49;27.43;;;21.30;;
17812;SDS011;9030;50.792;8.320;2024-01-15T08:23:17;28.87;;;21.17;;
17812;SDS011;9030;50.792;8.320;2024-01-15T08:25:44;24.97;;;18.17;;
17812;SDS011;9030;50.792;8.320;2024-01-15T08:28:11;28.90;;;19.60;;
17812;SDS011;9030;50.792;8.320;2024-01-15T08:30:38;24.83;;;17.43;;
17812;SDS011;9030;50.792;8.320;2024-01-15T08:33:04;23.77;;;15.83;;
17812;SDS011;9030;50.792;8.320;2024-01-15T08:35:30;24.50;;;16.17;;
17812;SDS011;9030;50.792;8.320;2024-01-15T08:37:57;22.90;;;15.83;;
17812;SDS011;9030;50.792;8.320;2024-01-15T08:40:25;21.27;;;16.87;;
17812;SDS011;9030;50.792;8.320;2024-01-15T08:42:52;23.47;;;17.30;;
17812;SDS011;9030;50.792;8.320;2024-01-15T08:45:18;24.83;;;17.10;;
17812;SDS011;9030;50.792;8.320;2024-01-15T08:47:46;19.20;;;14.83;;
17812;SDS011;9030;50.792;8.320;2024-01-15T08:50:13;20.80;;;13.80;;
17812;SDS011;9030;50.792;8.320;2024-01-15T08:52:40;22.77;;;14.50;;
17812;SDS011;9030;50.792;8.320;2024-01-15T08:55:07;19.97;;;14.87;;
17812;SDS011;9030;50.792;8.320;2024-01-15T08:57:35;15.77;;;10.60;;
17812;SDS011;9030;50.792;8.320;2024-01-15T09:00:01;16.83;;;10.40;;
17812;SDS011;9030;50.792;8.320;2024-01-15T09:02:29;23.97;;;14.80;;
17812;SDS011;9030;50.792;8.320;2024-01-15T09:04:55;22.13;;;13.93;;
17812;SDS011;9030;50.792;8.320;2024-01-15T09:07:22;19.27;;;12.87;;
17812;SDS011;9030;50.792;8.320;2024-01-15T09:09:50;19.10;;;12.60;;
17812;SDS011;9030;50.792;8.320;2024-01-15T09:12:16;21.63;;;12.70;;
17812;SDS011;9030;50.792;8.320;2024-01-15T09:14:44;20.93;;;13.50;;
17812;SDS011;9030;50.792;8.320;2024-01-15T09:17:11;18.33;;;11.93;;
17812;SDS011;9030;50.792;8.320;2024-01-15T09:19:38;17.63;;;12.00;;
17812;SDS011;9030;50.792;8.320;2024-01-15T09:22:05;15.87;;;10.50;;
17812;SDS011;9030;50.792;8.320;2024-01-15T09:24:31;18.73;;;11.70;;
17812;SDS011;9030;50.792;8.320;2024-01-15T09:26:58;16.57;;;10.57;;
17812;SDS011;9030;50.792;8.320;2024-01-15T09:29:25;17.67;;;11.83;;
17812;SDS011;9030;50.792;8.320;2024-01-15T09:31:53;21.47;;;14.30;;
17812;SDS011;9030;50.792;8.320;2024-01-15T09:34:19;15.83;;;9.93;;
17812;SDS011;9030;50.792;8.320;2024-01-15T09:36:47;15.87;;;10.57;;
17812;SDS011;9030;50.792;8.320;2024-01-15T09:39:14;16.03;;;10.60;;
17812;SDS011;9030;50.792;8.320;2024-01-15T09:41:40;14.13;;;9.93;;
17812;SDS011;9030;50.792;8.320;2024-01-15T09:44:08;15.33;;;11.83;;
17812;SDS011;9030;50.792;8.320;2024-01-15T09:46:36;20.77;;;11.13;;
17812;SDS011;9030;50.792;8.320;2024-01-15T09:49:05;18.33;;;12.00;;
17812;SDS011;9030;50.792;8.320;2024-01-15T09:51:32;18.50;;;11.90;;
17812;SDS011;9030;50.792;8.320;2024-01-15T09:53:59;20.20;;;11.30;;
17812;SDS011;9030;50.792;8.320;2024-01-15T09:56:26;17.73;;;10.23;;
17812;SDS011;9030;50.792;8.320;2024-01-15T09:58:52;18.67;;;10.87;;
17812;SDS011;9030;50.792;8.320;2024-01-15T10:01:20;18.90;;;10.90;;
17812;SDS011;9030;50.792;8.320;2024-01-15T10:03:46;14.50;;;9.90;;
17812;SDS011;9030;50.792;8.320;2024-01-15T10:06:15;14.83;;;9.07;;
17812;SDS011;9030;50.792;8.320;2024-01-15T10:08:43;13.43;;;8.70;;
17812;SDS011;9030;50.792;8.320;2024-01-15T10:11:14;15.80;;;8.17;;
17812;SDS011;9030;50.792;8.320;2024-01-15T10:13:41;18.00;;;9.27;;
17812;SDS011;9030;50.792;8.320;2024-01-15T10:16:09;19.10;;;8.47;;
17812;SDS011;9030;50.792;8.320;2024-01-15T10:18:36;18.63;;;12.07;;
17812;SDS011;9030;50.792;8.320;2024-01-15T10:21:04;19.43;;;9.53;;
17812;SDS011;9030;50.792;8.320;2024-01-15T10:23:34;19.17;;;10.00;;
17812;SDS011;9030;50.792;8.320;2024-01-15T10:26:01;16.57;;;9.57;;
17812;SDS011;9030;50.792;8.320;2024-01-15T10:28:28;18.93;;;11.40;;
17812;SDS011;9030;50.792;8.320;2024-01-15T10:30:57;20.63;;;12.40;;
17812;SDS011;9030;50.792;8.320;2024-01-15T10:33:25;18.23;;;10.47;;
17812;SDS011;9030;50.792;8.320;2024-01-15T10:35:53;24.57;;;12.77;;
17812;SDS011;9030;50.792;8.320;2024-01-15T10:38:20;18.70;;;11.40;;
17812;SDS011;9030;50.792;8.320;2024-01-15T10:40:49;16.97;;;12.20;;
17812;SDS011;9030;50.792;8.320;2024-01-15T10:43:18;23.10;;;13.40;;
17812;SDS011;9030;50.792;8.320;2024-01-15T10:45:45;22.67;;;13.67;;
17812;SDS011;9030;50.792;8.320;2024-01-15T10:48:12;20.37;;;12.93;;
17812;SDS011;9030;50.792;8.320;2024-01-15T10:50:38;20.70;;;12.73;;
17812;SDS011;9030;50.792;8.320;2024-01-15T10:53:05;24.73;;;13.83;;
17812;SDS011;9030;50.792;8.320;2024-01-15T10:55:34;22.90;;;13.50;;
17812;SDS011;9030;50.792;8.320;2024-01-15T10:58:02;24.40;;;14.57;;
17812;SDS011;9030;50.792;8.320;2024-01-15T11:00:30;27.63;;;16.43;;
17812;SDS011;9030;50.792;8.320;2024-01-15T11:02:57;23.43;;;16.43;;
17812;SDS011;9030;50.792;8.320;2024-01-15T11:05:23;24.20;;;14.93;;
17812;SDS011;9030;50.792;8.320;2024-01-15T11:07:54;24.67;;;16.33;;
17812;SDS011;9030;50.792;8.320;2024-01-15T11:10:40;29.97;;;18.00;;
17812;SDS011;9030;50.792;8.320;2024-01-15T11:13:09;26.27;;;17.03;;
17812;SDS011;9030;50.792;8.320;2024-01-15T11:15:58;24.60;;;14.53;;
17812;SDS011;9030;50.792;8.320;2024-01-15T11:18:29;22.30;;;14.83;;
17812;SDS011;9030;50.792;8.320;2024-01-15T11:23:50;20.90;;;14.77;;
17812;SDS011;9030;50.792;8.320;2024-01-15T11:26:27;23.40;;;14.60;;
17812;SDS011;9030;50.792;8.320;2024-01-15T11:28:57;17.87;;;9.87;;
17812;SDS011;9030;50.792;8.320;2024-01-15T11:31:26;16.83;;;10.47;;
17812;SDS011;9030;50.792;8.320;2024-01-15T11:33:54;14.20;;;8.10;;
17812;SDS011;9030;50.792;8.320;2024-01-15T11:36:20;17.77;;;11.40;;
17812;SDS011;9030;50.792;8.320;2024-01-15T11:38:47;17.93;;;9.67;;
17812;SDS011;9030;50.792;8.320;2024-01-15T11:41:13;16.67;;;9.00;;
17812;SDS011;9030;50.792;8.320;2024-01-15T11:43:41;16.40;;;9.53;;
17812;SDS011;9030;50.792;8.320;2024-01-15T11:46:10;14.07;;;7.73;;
17812;SDS011;9030;50.792;8.320;2024-01-15T11:48:42;18.87;;;9.43;;
17812;SDS011;9030;50.792;8.320;2024-01-15T11:51:11;14.50;;;8.53;;
17812;SDS011;9030;50.792;8.320;2024-01-15T11:53:40;15.70;;;8.77;;
17812;SDS011;9030;50.792;8.320;2024-01-15T11:56:12;12.17;;;7.53;;
17812;SDS011;9030;50.792;8.320;2024-01-15T11:58:41;15.00;;;8.40;;
17812;SDS011;9030;50.792;8.320;2024-01-15T12:01:08;9.83;;;5.73;;
17812;SDS011;9030;50.792;8.320;2024-01-15T12:03:37;26.43;;;21.43;;
17812;SDS011;9030;50.792;8.320;2024-01-15T12:06:05;12.40;;;6.00;;
17812;SDS011;9030;50.792;8.320;2024-01-15T12:08:32;18.57;;;12.37;;
17812;SDS011;9030;50.792;8.320;2024-01-15T12:10:59;13.23;;;5.60;;
17812;SDS011;9030;50.792;8.320;2024-01-15T12:13:30;8.27;;;4.13;;
17812;SDS011;9030;50.792;8.320;2024-01-15T12:15:56;13.50;;;6.80;;
17812;SDS011;9030;50.792;8.320;2024-01-15T12:18:24;13.23;;;7.77;;
17812;SDS011;9030;50.792;8.320;2024-01-15T12:20:52;8.70;;;5.50;;
17812;SDS011;9030;50.792;8.320;2024-01-15T12:23:20;10.57;;;5.30;;
17812;SDS011;9030;50.792;8.320;2024-01-15T12:25:47;6.10;;;3.40;;
17812;SDS011;9030;50.792;8.320;2024-01-15T12:28:15;8.37;;;4.33;;
17812;SDS011;9030;50.792;8.320;2024-01-15T12:30:41;14.27;;;9.27;;
17812;SDS011;9030;50.792;8.320;2024-01-15T12:33:09;7.03;;;3.80;;
17812;SDS011;9030;50.792;8.320;2024-01-15T12:35:37;7.10;;;3.27;;
17812;SDS011;9030;50.792;8.320;2024-01-15T12:38:04;5.23;;;2.70;;
17812;SDS011;9030;50.792;8.320;2024-01-15T12:40:31;11.17;;;8.07;;
17812;SDS011;9030;50.792;8.320;2024-01-15T12:42:59;8.37;;;3.97;;
17812;SDS011;9030;50.792;8.320;2024-01-15T12:45:25;14.70;;;8.37;;
17812;SDS011;9030;50.792;8.320;2024-01-15T12:47:52;18.87;;;11.60;;
17812;SDS011;9030;50.792;8.320;2024-01-15T12:50:23;7.90;;;4.20;;
17812;SDS011;9030;50.792;8.320;2024-01-15T12:52:52;10.10;;;5.27;;
17812;SDS011;9030;50.792;8.320;2024-01-15T12:55:18;26.37;;;22.53;;
17812;SDS011;9030;50.792;8.320;2024-01-15T12:57:45;6.63;;;3.03;;
17812;SDS011;9030;50.792;8.320;2024-01-15T13:00:12;5.90;;;2.87;;
17812;SDS011;9030;50.792;8.320;2024-01-15T13:02:39;16.47;;;10.23;;
17812;SDS011;9030;50.792;8.320;2024-01-15T13:05:07;12.53;;;6.47;;
17812;SDS011;9030;50.792;8.320;2024-01-15T13:07:36;14.20;;;6.97;;
17812;SDS011;9030;50.792;8.320;2024-01-15T13:10:04;10.33;;;4.87;;
17812;SDS011;9030;50.792;8.320;2024-01-15T13:12:31;8.43;;;3.17;;
17812;SDS011;9030;50.792;8.320;2024-01-15T13:14:58;3.77;;;1.73;;
17812;SDS011;9030;50.792;8.320;2024-01-15T13:17:24;18.33;;;10.73;;
17812;SDS011;9030;50.792;8.320;2024-01-15T13:19:51;19.60;;;13.93;;
17812;SDS011;9030;50.792;8.320;2024-01-15T13:22:18;13.73;;;7.97;;
17812;SDS011;9030;50.792;8.320;2024-01-15T13:24:45;7.57;;;3.60;;
17812;SDS011;9030;50.792;8.320;2024-01-15T13:27:13;7.77;;;3.37;;
17812;SDS011;9030;50.792;8.320;2024-01-15T13:29:40;6.83;;;3.67;;
17812;SDS011;9030;50.792;8.320;2024-01-15T13:32:06;11.03;;;6.33;;
17812;SDS011;9030;50.792;8.320;2024-01-15T13:34:35;6.20;;;3.17;;
17812;SDS011;9030;50.792;8.320;2024-01-15T13:37:01;9.00;;;3.23;;
17812;SDS011;9030;50.792;8.320;2024-01-15T13:39:28;8.90;;;4.93;;
17812;SDS011;9030;50.792;8.320;2024-01-15T13:41:58;24.03;;;14.47;;
17812;SDS011;9030;50.792;8.320;2024-01-15T13:44:26;50.63;;;35.80;;
17812;SDS011;9030;50.792;8.320;2024-01-15T13:46:53;18.13;;;8.20;;
17812;SDS011;9030;50.792;8.320;2024-01-15T13:49:19;8.53;;;4.60;;
17812;SDS011;9030;50.792;8.320;2024-01-15T13:51:46;10.50;;;5.03;;
17812;SDS011;9030;50.792;8.320;2024-01-15T13:54:13;17.23;;;10.37;;
17812;SDS011;9030;50.792;8.320;2024-01-15T13:56:39;22.43;;;13.57;;
17812;SDS011;9030;50.792;8.320;2024-01-15T13:59:06;8.60;;;3.10;;
17812;SDS011;9030;50.792;8.320;2024-01-15T14:01:35;10.33;;;3.87;;
17812;SDS011;9030;50.792;8.320;2024-01-15T14:04:01;12.10;;;5.43;;
17812;SDS011;9030;50.792;8.320;2024-01-15T14:06:28;15.57;;;8.27;;
17812;SDS011;9030;50.792;8.320;2024-01-15T14:08:55;28.13;;;15.57;;
17812;SDS011;9030;50.792;8.320;2024-01-15T14:11:21;13.43;;;7.37;;
17812;SDS011;9030;50.792;8.320;2024-01-15T14:13:48;9.43;;;6.43;;
17812;SDS011;9030;50.792;8.320;2024-01-15T14:16:15;12.67;;;7.67;;
17812;SDS011;9030;50.792;8.320;2024-01-15T14:23:09;16.07;;;11.63;;
17812;SDS011;9030;50.792;8.320;2024-01-15T14:25:38;12.97;;;6.43;;
17812;SDS011;9030;50.792;8.320;2024-01-15T14:28:05;17.53;;;9.47;;
17812;SDS011;9030;50.792;8.320;2024-01-15T14:30:32;13.70;;;8.40;;
17812;SDS011;9030;50.792;8.320;2024-01-15T14:32:58;10.87;;;6.07;;
17812;SDS011;9030;50.792;8.320;2024-01-15T14:35:25;11.70;;;6.73;;
17812;SDS011;9030;50.792;8.320;2024-01-15T14:37:51;12.97;;;9.77;;
17812;SDS011;9030;50.792;8.320;2024-01-15T14:40:19;16.53;;;9.73;;
17812;SDS011;9030;50.792;8.320;2024-01-15T14:42:46;14.90;;;7.30;;
17812;SDS011;9030;50.792;8.320;2024-01-15T14:45:13;11.97;;;6.17;;
17812;SDS011;9030;50.792;8.320;2024-01-15T14:47:39;13.27;;;6.53;;